createdAt,value
2023-11-25T00:02:21.527Z,3.03
2023-11-25T00:04:54.583Z,3.00
2023-11-25T00:07:27.605Z,2.97
2023-11-25T00:10:00.613Z,2.91
2023-11-25T00:12:34.370Z,2.92
2023-11-25T00:15:08.323Z,2.91
2023-11-25T00:17:43.596Z,2.91
2023-11-25T00:20:17.226Z,2.91
2023-11-25T00:22:50.784Z,2.93
2023-11-25T00:25:25.692Z,2.94
2023-11-25T00:27:59.436Z,2.96
2023-11-25T00:30:32.462Z,2.97
2023-11-25T00:33:07.008Z,2.98
2023-11-25T00:35:39.987Z,3.00
2023-11-25T00:38:13.216Z,3.02
2023-11-25T00:40:48.352Z,3.02
2023-11-25T00:43:21.430Z,3.04
2023-11-25T00:45:54.455Z,3.07
2023-11-25T00:48:28.719Z,3.08
2023-11-25T00:51:02.554Z,3.10
2023-11-25T00:53:35.391Z,3.12
2023-11-25T00:56:08.665Z,3.13
2023-11-25T00:58:41.635Z,3.14
2023-11-25T01:01:14.520Z,3.15
2023-11-25T01:03:48.890Z,3.13
2023-11-25T01:06:22.300Z,3.15
2023-11-25T01:08:55.221Z,3.16
2023-11-25T01:11:28.114Z,3.14
2023-11-25T01:14:01.049Z,3.13
2023-11-25T01:16:34.010Z,3.11
2023-11-25T01:19:08.946Z,3.07
2023-11-25T01:21:41.905Z,3.05
2023-11-25T01:24:14.817Z,2.99
2023-11-25T01:26:47.691Z,2.96
2023-11-25T01:29:20.561Z,2.96
2023-11-25T01:31:53.421Z,2.97
2023-11-25T01:34:27.767Z,2.97
2023-11-25T01:37:00.690Z,2.96
2023-11-25T01:39:33.604Z,2.96
2023-11-25T01:42:06.946Z,2.94
2023-11-25T01:44:39.812Z,2.91
2023-11-25T01:47:14.548Z,2.89
2023-11-25T01:49:49.455Z,2.89
2023-11-25T01:52:23.551Z,2.87
2023-11-25T01:54:56.377Z,2.98
2023-11-25T01:57:30.757Z,2.82
2023-11-25T02:00:08.855Z,2.76
2023-11-25T02:02:45.104Z,2.72
2023-11-25T02:05:19.666Z,2.68
2023-11-25T02:07:52.851Z,2.66
2023-11-25T02:10:26.161Z,2.66
2023-11-25T02:12:59.040Z,2.68
2023-11-25T02:15:33.359Z,2.67
2023-11-25T02:18:06.486Z,2.65
2023-11-25T02:20:42.336Z,2.63
2023-11-25T02:23:20.603Z,2.61
2023-11-25T02:25:54.041Z,2.60
2023-11-25T02:28:27.565Z,2.59
2023-11-25T02:31:00.531Z,2.54
2023-11-25T02:33:39.251Z,2.50
2023-11-25T02:36:12.087Z,2.47
2023-11-25T02:38:46.942Z,2.46
2023-11-25T02:41:19.841Z,2.45
2023-11-25T02:43:53.710Z,2.44
2023-11-25T02:46:26.710Z,2.44
2023-11-25T02:49:00.768Z,2.45
2023-11-25T02:51:34.539Z,2.44
2023-11-25T02:54:08.891Z,2.44
2023-11-25T02:56:41.817Z,2.46
2023-11-25T02:59:15.521Z,2.45
2023-11-25T03:01:53.283Z,2.44
2023-11-25T03:04:28.186Z,2.42
2023-11-25T03:07:05.799Z,2.41
2023-11-25T03:09:43.305Z,2.38
2023-11-25T03:12:16.165Z,2.33
2023-11-25T03:14:49.025Z,2.32
2023-11-25T03:17:21.979Z,2.29
2023-11-25T03:19:54.889Z,2.25
2023-11-25T03:22:28.152Z,2.25
2023-11-25T03:25:03.127Z,2.25
2023-11-25T03:27:36.748Z,2.24
2023-11-25T03:30:12.670Z,2.22
2023-11-25T03:32:46.514Z,2.21
2023-11-25T03:35:19.535Z,2.19
2023-11-25T03:37:52.425Z,2.20
2023-11-25T03:40:27.270Z,2.20
2023-11-25T03:43:01.397Z,2.17
2023-11-25T03:45:34.306Z,2.17
2023-11-25T03:48:08.101Z,2.15
2023-11-25T03:50:41.071Z,2.15
2023-11-25T03:53:14.183Z,2.13
2023-11-25T03:55:48.560Z,2.10
2023-11-25T03:58:21.508Z,2.09
2023-11-25T04:00:54.392Z,2.09
2023-11-25T04:03:27.461Z,2.11
2023-11-25T04:06:00.365Z,2.10
2023-11-25T04:08:34.099Z,2.06
2023-11-25T04:11:09.317Z,2.00
2023-11-25T04:13:42.537Z,1.95
2023-11-25T04:16:16.275Z,1.94
2023-11-25T04:18:49.160Z,1.93
2023-11-25T04:21:24.134Z,1.92
2023-11-25T04:23:57.358Z,1.91
2023-11-25T04:26:32.181Z,1.91
2023-11-25T04:29:05.710Z,1.88
2023-11-25T04:31:38.735Z,1.91
2023-11-25T04:34:11.632Z,1.90
2023-11-25T04:36:44.742Z,1.90
2023-11-25T04:39:17.723Z,1.94
2023-11-25T04:41:51.944Z,1.93
2023-11-25T04:44:25.000Z,1.94
2023-11-25T04:46:58.113Z,1.95
2023-11-25T04:49:31.049Z,1.96
2023-11-25T04:52:05.662Z,1.93
2023-11-25T04:54:39.348Z,1.90
2023-11-25T04:57:13.604Z,1.86
2023-11-25T04:59:47.455Z,1.81
2023-11-25T05:02:21.560Z,1.90
2023-11-25T05:04:54.492Z,1.78
2023-11-25T05:07:30.182Z,1.77
2023-11-25T05:10:04.217Z,1.75
2023-11-25T05:12:38.800Z,1.87
2023-11-25T05:15:16.159Z,1.76
2023-11-25T05:17:49.115Z,1.76
2023-11-25T05:20:28.112Z,1.76
2023-11-25T05:23:00.986Z,1.79
2023-11-25T05:25:33.942Z,1.80
2023-11-25T05:28:08.311Z,1.81
2023-11-25T05:30:42.653Z,1.83
2023-11-25T05:33:15.549Z,1.85
2023-11-25T05:35:48.410Z,1.86
2023-11-25T05:38:25.011Z,1.87
2023-11-25T05:40:58.514Z,1.91
2023-11-25T05:43:32.756Z,1.91
2023-11-25T05:46:06.365Z,1.92
2023-11-25T05:48:42.219Z,1.94
2023-11-25T05:51:16.304Z,1.94
2023-11-25T05:53:49.328Z,1.97
2023-11-25T05:56:25.314Z,1.99
2023-11-25T05:59:02.511Z,1.99
2023-11-25T06:01:35.603Z,2.00
2023-11-25T06:04:08.879Z,2.02
2023-11-25T06:06:41.817Z,2.04
2023-11-25T06:09:15.892Z,2.03
2023-11-25T06:11:54.313Z,2.01
2023-11-25T06:14:29.382Z,1.98
2023-11-25T06:17:04.154Z,1.97
2023-11-25T06:19:37.661Z,1.96
2023-11-25T06:22:10.599Z,1.95
2023-11-25T06:24:44.234Z,1.94
2023-11-25T06:27:19.880Z,1.93
2023-11-25T06:29:54.142Z,1.87
2023-11-25T06:32:28.660Z,1.85
2023-11-25T06:35:01.730Z,1.80
2023-11-25T06:37:37.310Z,1.79
2023-11-25T06:40:13.648Z,1.79
2023-11-25T06:42:46.653Z,1.80
2023-11-25T06:45:22.760Z,1.81
2023-11-25T06:47:56.183Z,1.81
2023-11-25T06:50:29.702Z,1.81
2023-11-25T06:53:02.850Z,1.83
2023-11-25T06:55:36.788Z,1.84
2023-11-25T06:58:12.558Z,1.88
2023-11-25T07:00:49.249Z,1.90
2023-11-25T07:03:22.337Z,1.93
2023-11-25T07:05:58.312Z,1.96
2023-11-25T07:08:34.195Z,1.97
2023-11-25T07:11:11.347Z,1.97
2023-11-25T07:13:45.164Z,1.97
2023-11-25T07:16:19.477Z,1.97
2023-11-25T07:18:52.350Z,2.00
2023-11-25T07:21:25.519Z,2.01
2023-11-25T07:23:58.401Z,2.04
2023-11-25T07:26:31.270Z,2.06
2023-11-25T07:29:05.883Z,2.04
2023-11-25T07:31:40.287Z,2.07
2023-11-25T07:34:13.411Z,2.05
2023-11-25T07:36:47.817Z,2.00
2023-11-25T07:39:20.876Z,1.98
2023-11-25T07:41:55.081Z,2.00
2023-11-25T07:44:31.531Z,2.02
2023-11-25T07:47:07.149Z,1.99
2023-11-25T07:49:40.061Z,1.94
2023-11-25T07:52:13.033Z,1.96
2023-11-25T07:54:46.489Z,1.99
2023-11-25T07:57:19.679Z,1.98
2023-11-25T07:59:52.639Z,2.07
2023-11-25T08:02:27.186Z,2.11
2023-11-25T08:05:00.274Z,2.21
2023-11-25T08:07:33.295Z,2.41
2023-11-25T08:10:08.864Z,2.49
2023-11-25T08:12:41.770Z,2.67
2023-11-25T08:15:15.373Z,2.87
2023-11-25T08:17:49.832Z,3.06
2023-11-25T08:20:23.131Z,3.22
2023-11-25T08:22:56.145Z,3.39
2023-11-25T08:25:29.126Z,3.43
2023-11-25T08:28:02.099Z,3.68
2023-11-25T08:30:35.789Z,3.85
2023-11-25T08:33:10.019Z,4.14
2023-11-25T08:35:43.983Z,4.19
2023-11-25T08:38:16.871Z,4.21
2023-11-25T08:40:49.986Z,4.18
2023-11-25T08:43:23.467Z,4.15
2023-11-25T08:45:56.401Z,4.15
2023-11-25T08:48:31.153Z,4.06
2023-11-25T08:51:08.915Z,3.93
2023-11-25T08:53:45.526Z,3.87
2023-11-25T08:56:18.742Z,3.77
2023-11-25T08:58:59.029Z,3.64
2023-11-25T09:01:43.567Z,3.53
2023-11-25T09:04:20.809Z,3.43
2023-11-25T09:06:56.519Z,3.34
2023-11-25T09:09:29.454Z,3.27
2023-11-25T09:12:04.144Z,3.20
2023-11-25T09:14:37.724Z,3.13
2023-11-25T09:17:12.677Z,3.04
2023-11-25T09:19:46.952Z,2.96
2023-11-25T09:22:19.961Z,2.86
2023-11-25T09:24:52.857Z,2.79
2023-11-25T09:27:25.948Z,2.77
2023-11-25T09:29:59.542Z,2.75
2023-11-25T09:32:32.407Z,2.79
2023-11-25T09:35:08.086Z,2.78
2023-11-25T09:37:41.294Z,2.75
2023-11-25T09:40:16.723Z,2.69
2023-11-25T09:42:50.154Z,2.65
2023-11-25T09:45:29.863Z,2.63
2023-11-25T09:48:04.414Z,2.59
2023-11-25T09:50:39.128Z,2.59
2023-11-25T09:53:20.216Z,2.63
2023-11-25T09:56:02.899Z,2.62
2023-11-25T09:58:37.675Z,2.52
2023-11-25T10:01:13.625Z,2.43
2023-11-25T10:03:49.291Z,2.30
2023-11-25T10:06:23.690Z,2.17
2023-11-25T10:08:56.602Z,2.11
2023-11-25T10:11:33.736Z,2.03
2023-11-25T10:14:11.268Z,1.97
2023-11-25T10:16:45.375Z,1.94
2023-11-25T10:19:23.623Z,1.92
2023-11-25T10:21:59.238Z,1.91
2023-11-25T10:24:32.205Z,1.93
2023-11-25T10:27:06.354Z,1.97
2023-11-25T10:29:41.155Z,2.00
2023-11-25T10:32:14.006Z,2.03
2023-11-25T10:34:46.909Z,2.05
2023-11-25T10:37:22.307Z,2.04
2023-11-25T10:39:56.342Z,2.06
2023-11-25T10:42:30.942Z,2.07
2023-11-25T10:45:06.123Z,2.10
2023-11-25T10:47:40.192Z,2.11
2023-11-25T10:50:14.624Z,2.15
2023-11-25T10:52:53.427Z,2.21
2023-11-25T10:55:28.187Z,2.26
2023-11-25T10:58:02.233Z,2.34
2023-11-25T11:00:36.077Z,2.41
2023-11-25T11:03:11.481Z,2.45
2023-11-25T11:05:51.616Z,2.47
2023-11-25T11:08:32.838Z,2.50
2023-11-25T11:11:12.078Z,2.57
2023-11-25T11:13:51.406Z,2.63
2023-11-25T11:16:33.987Z,2.73
2023-11-25T11:19:08.682Z,2.80
2023-11-25T11:22:03.177Z,2.84
2023-11-25T11:24:49.928Z,2.82
2023-11-25T11:27:34.826Z,2.80
2023-11-25T11:30:18.956Z,2.83
2023-11-25T11:32:56.826Z,2.82
2023-11-25T11:35:43.141Z,2.86
2023-11-25T11:38:31.289Z,2.89
2023-11-25T11:41:28.662Z,2.93
2023-11-25T11:44:05.950Z,2.85
2023-11-25T11:46:40.563Z,2.83
2023-11-25T11:49:20.013Z,2.80
2023-11-25T11:52:03.068Z,2.80
2023-11-25T11:54:39.923Z,2.77
2023-11-25T11:57:19.166Z,2.71
2023-11-25T12:00:04.498Z,2.70
2023-11-25T12:02:41.908Z,2.69
2023-11-25T12:05:18.520Z,2.71
2023-11-25T12:07:56.056Z,2.75
2023-11-25T12:10:29.012Z,2.78
2023-11-25T12:13:04.173Z,2.80
2023-11-25T12:15:37.709Z,2.80
2023-11-25T12:18:16.033Z,2.82
2023-11-25T12:20:49.032Z,2.83
2023-11-25T12:23:24.932Z,2.83
2023-11-25T12:26:01.200Z,2.82
2023-11-25T12:28:42.982Z,2.82
2023-11-25T12:31:16.181Z,2.83
2023-11-25T12:33:49.545Z,2.86
2023-11-25T12:36:27.322Z,2.86
2023-11-25T12:39:03.225Z,2.89
2023-11-25T12:41:41.174Z,2.91
2023-11-25T12:44:17.968Z,2.93
2023-11-25T12:47:05.649Z,2.95
2023-11-25T12:49:38.676Z,2.91
2023-11-25T12:52:21.268Z,2.91
2023-11-25T12:54:54.375Z,2.90
2023-11-25T12:57:30.510Z,2.89
2023-11-25T13:00:12.208Z,2.91
2023-11-25T13:02:47.249Z,2.90
2023-11-25T13:05:25.033Z,2.92
2023-11-25T13:07:58.370Z,2.90
2023-11-25T13:10:31.276Z,2.89
2023-11-25T13:13:05.713Z,2.90
2023-11-25T13:15:39.956Z,2.93
2023-11-25T13:18:13.968Z,2.94
2023-11-25T13:20:46.661Z,3.03
2023-11-25T13:23:21.149Z,2.92
2023-11-25T13:25:54.405Z,2.93
2023-11-25T13:28:27.531Z,2.90
2023-11-25T13:31:01.908Z,2.97
2023-11-25T13:33:35.637Z,3.11
2023-11-25T13:36:09.318Z,3.16
2023-11-25T13:38:42.275Z,3.16
2023-11-25T13:41:15.703Z,3.13
2023-11-25T13:43:48.774Z,3.13
2023-11-25T13:46:23.641Z,3.12
2023-11-25T13:48:56.748Z,3.12
2023-11-25T13:51:29.820Z,3.09
2023-11-25T13:54:03.976Z,3.02
2023-11-25T13:56:36.868Z,2.95
2023-11-25T13:59:12.950Z,2.87
2023-11-25T14:01:48.366Z,2.79
2023-11-25T14:04:25.023Z,2.76
2023-11-25T14:07:00.589Z,2.75
2023-11-25T14:09:33.858Z,2.73
2023-11-25T14:12:08.402Z,2.71
2023-11-25T14:14:41.448Z,2.69
2023-11-25T14:17:18.358Z,2.69
2023-11-25T14:19:52.380Z,2.65
2023-11-25T14:22:25.060Z,2.76
2023-11-25T14:24:58.384Z,2.60
2023-11-25T14:27:33.564Z,2.53
2023-11-25T14:30:09.612Z,2.48
2023-11-25T14:32:46.033Z,2.44
2023-11-25T14:35:19.317Z,2.44
2023-11-25T14:37:54.561Z,2.47
2023-11-25T14:40:30.563Z,2.47
2023-11-25T14:43:03.825Z,2.49
2023-11-25T14:45:36.795Z,2.49
2023-11-25T14:48:12.029Z,2.48
2023-11-25T14:50:45.988Z,2.48
2023-11-25T14:53:20.367Z,2.50
2023-11-25T14:55:53.529Z,2.50
2023-11-25T14:58:26.567Z,2.51
2023-11-25T15:00:59.467Z,2.50
2023-11-25T15:03:33.861Z,2.50
2023-11-25T15:06:08.914Z,2.48
2023-11-25T15:08:43.315Z,2.48
2023-11-25T15:11:16.315Z,2.47
2023-11-25T15:13:49.313Z,2.46
2023-11-25T15:16:22.283Z,2.46
2023-11-25T15:18:57.289Z,2.42
2023-11-25T15:21:30.237Z,2.40
2023-11-25T15:24:03.119Z,2.36
2023-11-25T15:26:36.393Z,2.33
2023-11-25T15:29:09.365Z,2.32
2023-11-25T15:31:42.484Z,2.32
2023-11-25T15:34:17.816Z,2.31
2023-11-25T15:36:51.542Z,2.33
2023-11-25T15:39:28.235Z,2.32
2023-11-25T15:42:01.311Z,2.34
2023-11-25T15:44:34.241Z,2.35
2023-11-25T15:47:07.512Z,2.39
2023-11-25T15:49:42.393Z,2.36
2023-11-25T15:52:15.432Z,2.35
2023-11-25T15:54:48.429Z,2.35
2023-11-25T15:57:21.741Z,2.34
2023-11-25T15:59:55.219Z,2.34
2023-11-25T16:02:28.233Z,2.34
2023-11-25T16:05:02.682Z,2.34
2023-11-25T16:07:35.779Z,2.34
2023-11-25T16:10:11.403Z,2.34
2023-11-25T16:12:44.782Z,2.33
2023-11-25T16:15:18.389Z,2.33
2023-11-25T16:17:51.381Z,2.33
2023-11-25T16:20:25.720Z,2.33
2023-11-25T16:22:58.811Z,2.31
2023-11-25T16:25:31.765Z,2.32
2023-11-25T16:28:05.394Z,2.33
2023-11-25T16:30:38.298Z,2.35
2023-11-25T16:33:11.516Z,2.37
2023-11-25T16:35:45.854Z,2.37
2023-11-25T16:38:21.007Z,2.36
2023-11-25T16:40:54.310Z,2.39
2023-11-25T16:43:27.229Z,2.39
2023-11-25T16:46:01.340Z,2.36
2023-11-25T16:48:43.770Z,2.33
2023-11-25T16:51:26.040Z,2.32
2023-11-25T16:53:58.995Z,2.32
2023-11-25T16:56:31.880Z,2.32
2023-11-25T16:59:06.243Z,2.31
2023-11-25T17:01:41.659Z,2.31
2023-11-25T17:04:15.808Z,2.31
2023-11-25T17:06:50.245Z,2.31
2023-11-25T17:09:26.057Z,2.31
2023-11-25T17:11:58.956Z,2.33
2023-11-25T17:14:31.918Z,2.35
2023-11-25T17:17:09.900Z,2.33
2023-11-25T17:19:42.976Z,2.28
2023-11-25T17:22:17.289Z,2.23
2023-11-25T17:24:50.251Z,2.14
2023-11-25T17:27:25.493Z,2.05
2023-11-25T17:29:58.555Z,1.94
2023-11-25T17:32:31.516Z,1.84
2023-11-25T17:35:05.188Z,1.76
2023-11-25T17:37:39.672Z,1.71
2023-11-25T17:40:13.792Z,1.67
2023-11-25T17:42:47.352Z,1.65
2023-11-25T17:45:20.252Z,1.67
2023-11-25T17:47:53.440Z,1.70
2023-11-25T17:50:26.550Z,1.71
2023-11-25T17:53:09.517Z,1.70
2023-11-25T17:55:45.899Z,1.72
2023-11-25T17:58:18.893Z,1.75
2023-11-25T18:00:54.406Z,1.80
2023-11-25T18:03:28.768Z,1.85
2023-11-25T18:06:01.704Z,1.87
2023-11-25T18:08:36.016Z,1.89
2023-11-25T18:11:08.961Z,1.91
2023-11-25T18:13:42.045Z,1.90
2023-11-25T18:16:16.956Z,1.90
2023-11-25T18:18:50.122Z,1.90
2023-11-25T18:21:23.245Z,1.91
2023-11-25T18:23:57.521Z,1.91
2023-11-25T18:26:30.386Z,1.90
2023-11-25T18:29:03.568Z,1.92
2023-11-25T18:31:36.516Z,1.93
2023-11-25T18:34:09.981Z,1.95
2023-11-25T18:36:42.895Z,1.98
2023-11-25T18:39:17.162Z,2.00
2023-11-25T18:41:50.161Z,2.00
2023-11-25T18:44:23.101Z,1.96
2023-11-25T18:46:56.035Z,1.89
2023-11-25T18:49:28.956Z,1.80
2023-11-25T18:52:02.649Z,1.71
2023-11-25T18:54:36.972Z,1.62
2023-11-25T18:57:10.057Z,1.55
2023-11-25T18:59:46.509Z,1.47
2023-11-25T19:02:20.447Z,1.38
2023-11-25T19:04:53.267Z,1.44
2023-11-25T19:07:26.214Z,1.26
2023-11-25T19:10:00.494Z,1.20
2023-11-25T19:12:35.665Z,1.14
2023-11-25T19:15:09.020Z,1.07
2023-11-25T19:17:42.015Z,1.01
2023-11-25T19:20:15.260Z,0.98
2023-11-25T19:22:48.226Z,0.95
2023-11-25T19:25:22.625Z,0.94
2023-11-25T19:27:56.380Z,0.97
2023-11-25T19:30:30.027Z,0.98
2023-11-25T19:33:03.803Z,0.99
2023-11-25T19:35:37.450Z,0.99
2023-11-25T19:38:12.493Z,0.99
2023-11-25T19:40:48.685Z,0.99
2023-11-25T19:43:22.522Z,1.00
2023-11-25T19:45:55.557Z,1.04
2023-11-25T19:48:28.659Z,1.09
2023-11-25T19:51:01.706Z,1.13
2023-11-25T19:53:49.584Z,1.16
2023-11-25T19:56:25.930Z,1.20
2023-11-25T19:58:58.999Z,1.27
2023-11-25T20:01:31.981Z,1.32
2023-11-25T20:04:05.427Z,1.38
2023-11-25T20:06:38.738Z,1.43
2023-11-25T20:09:12.720Z,1.47
2023-11-25T20:11:47.585Z,1.51
2023-11-25T20:14:20.688Z,1.56
2023-11-25T20:16:53.949Z,1.60
2023-11-25T20:19:28.991Z,1.60
2023-11-25T20:22:02.209Z,1.61
2023-11-25T20:24:35.309Z,1.64
2023-11-25T20:27:09.656Z,1.66
2023-11-25T20:29:43.058Z,1.67
2023-11-25T20:32:19.240Z,1.71
2023-11-25T20:34:52.325Z,1.70
2023-11-25T20:37:25.368Z,1.72
2023-11-25T20:39:59.534Z,1.75
2023-11-25T20:42:33.944Z,1.77
2023-11-25T20:45:08.230Z,1.78
2023-11-25T20:47:41.252Z,1.77
2023-11-25T20:50:14.466Z,1.74
2023-11-25T20:52:47.949Z,1.72
2023-11-25T20:55:21.453Z,1.72
2023-11-25T20:57:56.600Z,1.68
2023-11-25T21:00:30.253Z,1.69
2023-11-25T21:03:04.015Z,1.72
2023-11-25T21:05:36.983Z,1.85
2023-11-25T21:08:12.848Z,1.76
2023-11-25T21:10:45.907Z,1.76
2023-11-25T21:13:20.418Z,1.78
2023-11-25T21:15:53.739Z,1.79
2023-11-25T21:18:26.731Z,1.79
2023-11-25T21:20:59.948Z,1.80
2023-11-25T21:23:32.983Z,1.80
2023-11-25T21:26:07.254Z,1.81
2023-11-25T21:28:42.773Z,1.80
2023-11-25T21:31:15.921Z,1.78
2023-11-25T21:33:48.982Z,1.76
2023-11-25T21:36:21.838Z,1.75
2023-11-25T21:38:54.908Z,1.71
2023-11-25T21:41:27.871Z,1.67
2023-11-25T21:44:02.154Z,1.61
2023-11-25T21:46:35.113Z,1.54
2023-11-25T21:49:08.179Z,1.46
2023-11-25T21:51:41.052Z,1.36
2023-11-25T21:54:14.131Z,1.26
2023-11-25T21:56:48.202Z,1.18
2023-11-25T21:59:22.331Z,1.19
2023-11-25T22:01:55.499Z,0.97
2023-11-25T22:04:28.622Z,0.86
2023-11-25T22:07:03.836Z,0.76
2023-11-25T22:09:37.565Z,0.66
2023-11-25T22:12:10.556Z,0.56
2023-11-25T22:14:44.989Z,0.49
2023-11-25T22:17:17.881Z,0.40
2023-11-25T22:19:50.902Z,0.34
2023-11-25T22:22:24.057Z,0.27
2023-11-25T22:24:57.268Z,0.20
2023-11-25T22:27:32.639Z,0.14
2023-11-25T22:30:09.141Z,0.07
2023-11-25T22:32:42.903Z,0.01
2023-11-25T22:35:17.528Z,-0.03
2023-11-25T22:37:50.893Z,-0.07
2023-11-25T22:40:24.096Z,-0.11
2023-11-25T22:42:57.088Z,-0.14
2023-11-25T22:45:33.053Z,-0.20
2023-11-25T22:48:06.388Z,-0.23
2023-11-25T22:50:39.257Z,-0.27
2023-11-25T22:53:12.406Z,-0.29
2023-11-25T22:55:45.482Z,-0.33
2023-11-25T22:58:18.431Z,-0.38
2023-11-25T23:01:05.613Z,-0.40
2023-11-25T23:03:38.750Z,-0.42
2023-11-25T23:06:11.882Z,-0.45
2023-11-25T23:08:47.775Z,-0.47
2023-11-25T23:11:21.102Z,-0.52
2023-11-25T23:13:56.698Z,-0.54
2023-11-25T23:16:31.088Z,-0.57
2023-11-25T23:19:04.114Z,-0.59
2023-11-25T23:21:36.998Z,-0.58
2023-11-25T23:24:10.177Z,-0.60
2023-11-25T23:26:43.202Z,-0.60
2023-11-25T23:29:16.533Z,-0.62
2023-11-25T23:31:50.775Z,-0.65
2023-11-25T23:34:23.863Z,-0.67
2023-11-25T23:36:56.924Z,-0.68
2023-11-25T23:39:30.450Z,-0.70
2023-11-25T23:42:03.744Z,-0.72
2023-11-25T23:44:36.706Z,-0.74
2023-11-25T23:47:11.048Z,-0.77
2023-11-25T23:49:44.064Z,-0.79
2023-11-25T23:52:17.614Z,-0.81
2023-11-25T23:54:50.872Z,-0.83
2023-11-25T23:57:23.773Z,-0.87
2023-11-25T23:59:56.904Z,-0.88
